Bulolo Airport


Codes: BUL/BUL
Name: Bulolo Airport
City: Bulolo
Country: Papua New Guinea
Elevation: 2240 ft.
Wikipedia:

Photos at Bulolo Airport


   Photos courtesy of SpottingLog. You can add your own sightings and photos by signing up for a free trial today.



No photos found.

Weather at Bulolo Airport


Time (UTC)DescriptionTempratureWindCloud coverageVisibilityPressureHumidity
13-Jun-2024 03:00Moderate Rain27°C2 mph, NE75%7042m1012hPa84%
13-Jun-2024 06:00Moderate Rain27°C2 mph, E75%10000m1012hPa86%
13-Jun-2024 09:00Light Rain24°C2 mph, SE90%10000m1013hPa93%
13-Jun-2024 12:00Light Rain22°C0 mph, SE98%10000m1016hPa98%
13-Jun-2024 15:00Light Rain22°C0 mph, SE100%10000m1015hPa98%
13-Jun-2024 18:00Light Rain22°C0 mph, S98%10000m1013hPa97%
13-Jun-2024 21:00Light Rain22°C0 mph, E99%10000m1014hPa95%
14-Jun-2024 00:00Light Rain28°C2 mph, N85%10000m1014hPa70%
14-Jun-2024 03:00Light Rain28°C2 mph, N99%6921m1011hPa74%
14-Jun-2024 06:00Light Rain25°C0 mph, NE99%10000m1011hPa88%
14-Jun-2024 09:00Light Rain23°C2 mph, SE100%9190m1014hPa97%
14-Jun-2024 12:00Light Rain23°C2 mph, E100%10000m1015hPa97%
14-Jun-2024 15:00Light Rain22°C2 mph, E100%10000m1014hPa97%
14-Jun-2024 18:00Light Rain21°C2 mph, SE100%10000m1014hPa98%
14-Jun-2024 21:00Overcast Clouds21°C2 mph, SE97%10000m1015hPa96%
15-Jun-2024 00:00Light Rain26°C2 mph, NE86%10000m1014hPa77%
15-Jun-2024 03:00Light Rain27°C4 mph, NE83%10000m1012hPa73%
15-Jun-2024 06:00Light Rain26°C2 mph, NE79%10000m1011hPa76%
15-Jun-2024 09:00Light Rain22°C2 mph, E67%2330m1014hPa96%
15-Jun-2024 12:00Light Rain22°C2 mph, E76%1040m1015hPa98%
15-Jun-2024 15:00Light Rain21°C2 mph, E100%10000m1014hPa93%
15-Jun-2024 18:00Overcast Clouds20°C0 mph, SE99%10000m1014hPa93%
15-Jun-2024 21:00Broken Clouds20°C2 mph, S82%10000m1016hPa95%
16-Jun-2024 00:00Broken Clouds27°C2 mph, N76%10000m1015hPa62%
16-Jun-2024 03:00Light Rain30°C4 mph, N67%10000m1012hPa55%
16-Jun-2024 06:00Light Rain27°C2 mph, NE66%9376m1012hPa78%
16-Jun-2024 09:00Light Rain22°C2 mph, E43%8032m1015hPa97%
16-Jun-2024 12:00Light Rain22°C2 mph, E66%10000m1017hPa98%
16-Jun-2024 15:00Overcast Clouds20°C2 mph, SE92%10000m1016hPa99%
16-Jun-2024 18:00Overcast Clouds19°C2 mph, SE97%10000m1016hPa98%
16-Jun-2024 21:00Overcast Clouds19°C2 mph, SE100%10000m1017hPa94%
17-Jun-2024 00:00Overcast Clouds26°C2 mph, NE100%10000m1016hPa63%
17-Jun-2024 03:00Broken Clouds31°C4 mph, NE58%10000m1012hPa50%
17-Jun-2024 06:00Light Rain27°C2 mph, NE70%10000m1011hPa73%
17-Jun-2024 09:00Light Rain23°C2 mph, E66%10000m1014hPa96%
17-Jun-2024 12:00Light Rain21°C2 mph, E60%10000m1017hPa98%
17-Jun-2024 15:00Few Clouds19°C2 mph, SE15%10000m1016hPa97%
17-Jun-2024 18:00Few Clouds19°C2 mph, SE16%10000m1015hPa97%
17-Jun-2024 21:00Clear Sky20°C2 mph, SE0%10000m1016hPa96%
18-Jun-2024 00:00Clear Sky27°C2 mph, NE0%10000m1015hPa68%